sensor_id;sensor_type;location;lat;lon;timestamp;temperature;humidity
48206;DHT22;33995;48.202;16.260;2023-06-26T00:01:46;16.50;99.90
48206;DHT22;33995;48.202;16.260;2023-06-26T00:04:13;16.50;99.90
48206;DHT22;33995;48.202;16.260;2023-06-26T00:06:43;16.40;99.90
48206;DHT22;33995;48.202;16.260;2023-06-26T00:09:10;16.30;99.90
48206;DHT22;33995;48.202;16.260;2023-06-26T00:11:37;16.40;99.90
48206;DHT22;33995;48.202;16.260;2023-06-26T00:14:04;16.30;99.90
48206;DHT22;33995;48.202;16.260;2023-06-26T00:16:31;16.20;99.90
48206;DHT22;33995;48.202;16.260;2023-06-26T00:19:00;16.20;99.90
48206;DHT22;33995;48.202;16.260;2023-06-26T00:21:27;16.10;99.90
48206;DHT22;33995;48.202;16.260;2023-06-26T00:23:54;16.10;99.90
48206;DHT22;33995;48.202;16.260;2023-06-26T00:26:22;16.20;99.90
48206;DHT22;33995;48.202;16.260;2023-06-26T00:28:51;16.20;99.90
48206;DHT22;33995;48.202;16.260;2023-06-26T00:31:19;16.10;99.90
48206;DHT22;33995;48.202;16.260;2023-06-26T00:33:46;16.00;99.90
48206;DHT22;33995;48.202;16.260;2023-06-26T00:36:13;16.00;99.90
48206;DHT22;33995;48.202;16.260;2023-06-26T00:38:41;16.00;99.90
48206;DHT22;33995;48.202;16.260;2023-06-26T00:41:11;16.00;99.90
48206;DHT22;33995;48.202;16.260;2023-06-26T00:43:43;16.00;99.90
48206;DHT22;33995;48.202;16.260;2023-06-26T00:46:13;16.00;99.90
48206;DHT22;33995;48.202;16.260;2023-06-26T00:48:42;16.00;99.90
48206;DHT22;33995;48.202;16.260;2023-06-26T00:51:14;16.00;99.90
48206;DHT22;33995;48.202;16.260;2023-06-26T00:53:42;16.00;99.90
48206;DHT22;33995;48.202;16.260;2023-06-26T00:56:10;16.00;99.90
48206;DHT22;33995;48.202;16.260;2023-06-26T00:58:38;16.00;99.90
48206;DHT22;33995;48.202;16.260;2023-06-26T01:01:06;16.00;99.90
48206;DHT22;33995;48.202;16.260;2023-06-26T01:03:40;15.90;99.90
48206;DHT22;33995;48.202;16.260;2023-06-26T01:06:09;15.90;99.90
48206;DHT22;33995;48.202;16.260;2023-06-26T01:08:39;16.00;99.90
48206;DHT22;33995;48.202;16.260;2023-06-26T01:11:09;16.00;99.90
48206;DHT22;33995;48.202;16.260;2023-06-26T01:13:37;15.90;99.90
48206;DHT22;33995;48.202;16.260;2023-06-26T01:16:05;15.80;99.90
48206;DHT22;33995;48.202;16.260;2023-06-26T01:18:33;15.80;99.90
48206;DHT22;33995;48.202;16.260;2023-06-26T01:21:02;15.80;99.90
48206;DHT22;33995;48.202;16.260;2023-06-26T01:23:49;15.70;99.90
48206;DHT22;33995;48.202;16.260;2023-06-26T01:26:29;15.70;99.90
48206;DHT22;33995;48.202;16.260;2023-06-26T01:28:58;15.50;99.90
48206;DHT22;33995;48.202;16.260;2023-06-26T01:31:32;15.60;99.90
48206;DHT22;33995;48.202;16.260;2023-06-26T01:34:01;15.70;99.90
48206;DHT22;33995;48.202;16.260;2023-06-26T01:36:29;15.70;99.90
48206;DHT22;33995;48.202;16.260;2023-06-26T01:38:57;15.70;99.90
48206;DHT22;33995;48.202;16.260;2023-06-26T01:41:25;15.70;99.90
48206;DHT22;33995;48.202;16.260;2023-06-26T01:44:23;15.60;99.90
48206;DHT22;33995;48.202;16.260;2023-06-26T01:47:03;15.60;99.90
48206;DHT22;33995;48.202;16.260;2023-06-26T01:49:43;15.60;99.90
48206;DHT22;33995;48.202;16.260;2023-06-26T01:57:35;15.50;99.90
48206;DHT22;33995;48.202;16.260;2023-06-26T02:00:05;15.50;99.90
48206;DHT22;33995;48.202;16.260;2023-06-26T02:02:41;15.40;99.90
48206;DHT22;33995;48.202;16.260;2023-06-26T02:05:13;15.40;99.90
48206;DHT22;33995;48.202;16.260;2023-06-26T02:07:41;15.40;99.90
48206;DHT22;33995;48.202;16.260;2023-06-26T02:10:08;15.50;99.90
48206;DHT22;33995;48.202;16.260;2023-06-26T02:12:39;15.50;99.90
48206;DHT22;33995;48.202;16.260;2023-06-26T02:15:08;15.40;99.90
48206;DHT22;33995;48.202;16.260;2023-06-26T02:17:35;15.40;99.90
48206;DHT22;33995;48.202;16.260;2023-06-26T02:20:05;15.40;99.90
48206;DHT22;33995;48.202;16.260;2023-06-26T02:22:36;15.30;99.90
48206;DHT22;33995;48.202;16.260;2023-06-26T02:25:05;15.30;99.90
48206;DHT22;33995;48.202;16.260;2023-06-26T02:27:34;15.10;99.90
48206;DHT22;33995;48.202;16.260;2023-06-26T02:30:00;15.20;99.90
48206;DHT22;33995;48.202;16.260;2023-06-26T02:32:28;15.20;99.90
48206;DHT22;33995;48.202;16.260;2023-06-26T02:34:55;15.30;99.90
48206;DHT22;33995;48.202;16.260;2023-06-26T02:37:23;15.30;99.90
48206;DHT22;33995;48.202;16.260;2023-06-26T02:39:51;15.20;99.90
48206;DHT22;33995;48.202;16.260;2023-06-26T02:42:18;15.10;99.90
48206;DHT22;33995;48.202;16.260;2023-06-26T02:44:45;15.20;99.90
48206;DHT22;33995;48.202;16.260;2023-06-26T02:47:13;15.20;99.90
48206;DHT22;33995;48.202;16.260;2023-06-26T02:49:42;15.30;99.90
48206;DHT22;33995;48.202;16.260;2023-06-26T02:52:10;15.20;99.90
48206;DHT22;33995;48.202;16.260;2023-06-26T02:54:37;15.00;99.90
48206;DHT22;33995;48.202;16.260;2023-06-26T02:57:05;15.10;99.90
48206;DHT22;33995;48.202;16.260;2023-06-26T02:59:34;15.30;99.90
48206;DHT22;33995;48.202;16.260;2023-06-26T03:02:04;15.20;99.90
48206;DHT22;33995;48.202;16.260;2023-06-26T03:04:37;15.20;99.90
48206;DHT22;33995;48.202;16.260;2023-06-26T03:07:09;15.20;99.90
48206;DHT22;33995;48.202;16.260;2023-06-26T03:09:37;15.10;99.90
48206;DHT22;33995;48.202;16.260;2023-06-26T03:12:07;15.00;99.90
48206;DHT22;33995;48.202;16.260;2023-06-26T03:14:36;15.00;99.90
48206;DHT22;33995;48.202;16.260;2023-06-26T03:17:03;15.00;99.90
48206;DHT22;33995;48.202;16.260;2023-06-26T03:19:32;15.10;99.90
48206;DHT22;33995;48.202;16.260;2023-06-26T03:22:23;15.20;99.90
48206;DHT22;33995;48.202;16.260;2023-06-26T03:24:50;15.10;99.90
48206;DHT22;33995;48.202;16.260;2023-06-26T03:27:21;15.10;99.90
48206;DHT22;33995;48.202;16.260;2023-06-26T03:29:49;15.10;99.90
48206;DHT22;33995;48.202;16.260;2023-06-26T03:32:20;15.10;99.90
48206;DHT22;33995;48.202;16.260;2023-06-26T03:34:52;15.00;99.90
48206;DHT22;33995;48.202;16.260;2023-06-26T03:37:21;15.00;99.90
48206;DHT22;33995;48.202;16.260;2023-06-26T03:39:49;15.00;99.90
48206;DHT22;33995;48.202;16.260;2023-06-26T03:42:16;15.20;99.90
48206;DHT22;33995;48.202;16.260;2023-06-26T03:44:43;15.30;99.90
48206;DHT22;33995;48.202;16.260;2023-06-26T03:47:11;15.40;99.90
48206;DHT22;33995;48.202;16.260;2023-06-26T03:49:38;15.20;99.90
48206;DHT22;33995;48.202;16.260;2023-06-26T03:52:07;15.10;99.90
48206;DHT22;33995;48.202;16.260;2023-06-26T03:54:34;15.10;99.90
48206;DHT22;33995;48.202;16.260;2023-06-26T03:57:03;15.10;99.90
48206;DHT22;33995;48.202;16.260;2023-06-26T03:59:31;15.20;99.90
48206;DHT22;33995;48.202;16.260;2023-06-26T04:01:58;15.20;99.90
48206;DHT22;33995;48.202;16.260;2023-06-26T04:04:26;15.20;99.90
48206;DHT22;33995;48.202;16.260;2023-06-26T04:06:54;15.10;99.90
48206;DHT22;33995;48.202;16.260;2023-06-26T04:09:22;15.20;99.90
48206;DHT22;33995;48.202;16.260;2023-06-26T04:11:49;15.30;99.90
48206;DHT22;33995;48.202;16.260;2023-06-26T04:14:17;15.40;99.90
48206;DHT22;33995;48.202;16.260;2023-06-26T04:16:44;15.40;99.90
48206;DHT22;33995;48.202;16.260;2023-06-26T04:19:12;15.40;99.90
48206;DHT22;33995;48.202;16.260;2023-06-26T04:21:42;15.40;99.90
48206;DHT22;33995;48.202;16.260;2023-06-26T04:24:09;15.40;99.90
48206;DHT22;33995;48.202;16.260;2023-06-26T04:26:41;15.50;99.90
48206;DHT22;33995;48.202;16.260;2023-06-26T04:29:08;15.60;99.90
48206;DHT22;33995;48.202;16.260;2023-06-26T04:31:34;15.60;99.90
48206;DHT22;33995;48.202;16.260;2023-06-26T04:34:02;15.70;99.90
48206;DHT22;33995;48.202;16.260;2023-06-26T04:36:30;15.80;99.90
48206;DHT22;33995;48.202;16.260;2023-06-26T04:38:58;15.80;99.90
48206;DHT22;33995;48.202;16.260;2023-06-26T04:41:26;15.90;99.90
48206;DHT22;33995;48.202;16.260;2023-06-26T04:43:53;15.90;99.90
48206;DHT22;33995;48.202;16.260;2023-06-26T04:46:21;16.00;99.90
48206;DHT22;33995;48.202;16.260;2023-06-26T04:48:49;16.00;99.90
48206;DHT22;33995;48.202;16.260;2023-06-26T04:51:19;16.20;99.90
48206;DHT22;33995;48.202;16.260;2023-06-26T04:53:47;16.30;99.90
48206;DHT22;33995;48.202;16.260;2023-06-26T04:56:14;16.40;99.90
48206;DHT22;33995;48.202;16.260;2023-06-26T04:58:43;16.40;99.90
48206;DHT22;33995;48.202;16.260;2023-06-26T05:01:10;16.50;99.90
48206;DHT22;33995;48.202;16.260;2023-06-26T05:03:42;16.70;99.90
48206;DHT22;33995;48.202;16.260;2023-06-26T05:06:10;16.80;99.90
48206;DHT22;33995;48.202;16.260;2023-06-26T05:08:36;16.90;99.90
48206;DHT22;33995;48.202;16.260;2023-06-26T05:11:05;17.00;99.90
48206;DHT22;33995;48.202;16.260;2023-06-26T05:13:32;17.20;99.90
48206;DHT22;33995;48.202;16.260;2023-06-26T05:16:02;17.30;99.90
48206;DHT22;33995;48.202;16.260;2023-06-26T05:18:29;17.40;99.90
48206;DHT22;33995;48.202;16.260;2023-06-26T05:20:56;17.40;99.90
48206;DHT22;33995;48.202;16.260;2023-06-26T05:23:24;17.50;99.90
48206;DHT22;33995;48.202;16.260;2023-06-26T05:25:55;17.60;99.90
48206;DHT22;33995;48.202;16.260;2023-06-26T05:28:23;17.70;99.90
48206;DHT22;33995;48.202;16.260;2023-06-26T05:30:54;17.90;99.90
48206;DHT22;33995;48.202;16.260;2023-06-26T05:33:23;18.00;99.90
48206;DHT22;33995;48.202;16.260;2023-06-26T05:35:55;18.10;99.90
48206;DHT22;33995;48.202;16.260;2023-06-26T05:38:25;18.20;99.90
48206;DHT22;33995;48.202;16.260;2023-06-26T05:40:53;18.30;99.90
48206;DHT22;33995;48.202;16.260;2023-06-26T05:43:22;18.40;99.90
48206;DHT22;33995;48.202;16.260;2023-06-26T05:45:54;18.60;99.90
48206;DHT22;33995;48.202;16.260;2023-06-26T05:48:21;18.70;99.90
48206;DHT22;33995;48.202;16.260;2023-06-26T05:50:52;18.80;99.90
48206;DHT22;33995;48.202;16.260;2023-06-26T05:53:20;18.90;99.90
48206;DHT22;33995;48.202;16.260;2023-06-26T05:55:47;19.00;99.90
48206;DHT22;33995;48.202;16.260;2023-06-26T05:58:18;19.10;99.90
48206;DHT22;33995;48.202;16.260;2023-06-26T06:00:47;19.20;99.90
48206;DHT22;33995;48.202;16.260;2023-06-26T06:03:14;19.30;99.90
48206;DHT22;33995;48.202;16.260;2023-06-26T06:05:41;19.40;99.90
48206;DHT22;33995;48.202;16.260;2023-06-26T06:08:10;19.50;99.90
48206;DHT22;33995;48.202;16.260;2023-06-26T06:10:37;19.60;99.90
48206;DHT22;33995;48.202;16.260;2023-06-26T06:13:06;19.70;99.90
48206;DHT22;33995;48.202;16.260;2023-06-26T06:15:33;19.90;99.90
48206;DHT22;33995;48.202;16.260;2023-06-26T06:18:01;20.00;99.90
48206;DHT22;33995;48.202;16.260;2023-06-26T06:20:28;20.20;99.90
48206;DHT22;33995;48.202;16.260;2023-06-26T06:22:56;20.30;99.90
48206;DHT22;33995;48.202;16.260;2023-06-26T06:25:24;20.40;99.90
48206;DHT22;33995;48.202;16.260;2023-06-26T06:27:54;20.40;99.90
48206;DHT22;33995;48.202;16.260;2023-06-26T06:30:21;20.50;99.90
48206;DHT22;33995;48.202;16.260;2023-06-26T06:33:09;20.60;99.90
48206;DHT22;33995;48.202;16.260;2023-06-26T06:35:37;20.70;99.90
48206;DHT22;33995;48.202;16.260;2023-06-26T06:38:04;20.80;99.90
48206;DHT22;33995;48.202;16.260;2023-06-26T06:40:32;21.00;99.90
48206;DHT22;33995;48.202;16.260;2023-06-26T06:42:59;21.10;99.90
48206;DHT22;33995;48.202;16.260;2023-06-26T06:45:29;21.20;99.90
48206;DHT22;33995;48.202;16.260;2023-06-26T06:47:59;21.20;99.90
48206;DHT22;33995;48.202;16.260;2023-06-26T06:50:26;21.30;99.90
48206;DHT22;33995;48.202;16.260;2023-06-26T06:52:56;21.40;99.90
48206;DHT22;33995;48.202;16.260;2023-06-26T06:55:24;21.60;99.90
48206;DHT22;33995;48.202;16.260;2023-06-26T06:57:52;21.70;99.90
48206;DHT22;33995;48.202;16.260;2023-06-26T07:00:20;21.80;99.90
48206;DHT22;33995;48.202;16.260;2023-06-26T07:02:50;22.00;99.90
48206;DHT22;33995;48.202;16.260;2023-06-26T07:05:19;22.10;99.90
48206;DHT22;33995;48.202;16.260;2023-06-26T07:07:48;22.10;99.90
48206;DHT22;33995;48.202;16.260;2023-06-26T07:10:17;22.10;99.90
48206;DHT22;33995;48.202;16.260;2023-06-26T07:12:44;22.20;99.90
48206;DHT22;33995;48.202;16.260;2023-06-26T07:15:13;22.20;99.90
48206;DHT22;33995;48.202;16.260;2023-06-26T07:17:41;22.30;99.90
48206;DHT22;33995;48.202;16.260;2023-06-26T07:20:09;22.40;99.90
48206;DHT22;33995;48.202;16.260;2023-06-26T07:22:44;22.50;99.90
48206;DHT22;33995;48.202;16.260;2023-06-26T07:25:13;22.70;99.90
48206;DHT22;33995;48.202;16.260;2023-06-26T07:27:41;22.80;99.90
48206;DHT22;33995;48.202;16.260;2023-06-26T07:30:10;23.00;99.90
48206;DHT22;33995;48.202;16.260;2023-06-26T07:32:38;23.10;99.90
48206;DHT22;33995;48.202;16.260;2023-06-26T07:35:12;23.10;99.90
48206;DHT22;33995;48.202;16.260;2023-06-26T07:37:42;23.00;99.90
48206;DHT22;33995;48.202;16.260;2023-06-26T07:40:10;23.20;99.90
48206;DHT22;33995;48.202;16.260;2023-06-26T07:42:40;23.40;99.90
48206;DHT22;33995;48.202;16.260;2023-06-26T07:45:08;23.60;99.90
48206;DHT22;33995;48.202;16.260;2023-06-26T07:47:42;23.80;99.90
48206;DHT22;33995;48.202;16.260;2023-06-26T07:50:09;24.00;99.90
48206;DHT22;33995;48.202;16.260;2023-06-26T07:52:39;24.10;99.90
48206;DHT22;33995;48.202;16.260;2023-06-26T07:55:06;24.10;99.90
48206;DHT22;33995;48.202;16.260;2023-06-26T07:57:34;24.20;99.90
48206;DHT22;33995;48.202;16.260;2023-06-26T08:00:03;24.30;99.90
48206;DHT22;33995;48.202;16.260;2023-06-26T08:02:39;24.50;99.90
48206;DHT22;33995;48.202;16.260;2023-06-26T08:05:08;24.60;99.90
48206;DHT22;33995;48.202;16.260;2023-06-26T08:07:39;24.50;99.90
48206;DHT22;33995;48.202;16.260;2023-06-26T08:10:08;24.60;99.90
48206;DHT22;33995;48.202;16.260;2023-06-26T08:12:35;24.90;99.90
48206;DHT22;33995;48.202;16.260;2023-06-26T08:15:09;25.00;99.90
48206;DHT22;33995;48.202;16.260;2023-06-26T08:17:38;24.80;99.90
48206;DHT22;33995;48.202;16.260;2023-06-26T08:20:10;25.00;99.90
48206;DHT22;33995;48.202;16.260;2023-06-26T08:22:40;25.10;99.90
48206;DHT22;33995;48.202;16.260;2023-06-26T08:25:07;25.10;99.90
48206;DHT22;33995;48.202;16.260;2023-06-26T08:27:35;25.30;99.90
48206;DHT22;33995;48.202;16.260;2023-06-26T08:30:03;25.20;99.90
48206;DHT22;33995;48.202;16.260;2023-06-26T08:32:32;25.10;99.90
48206;DHT22;33995;48.202;16.260;2023-06-26T08:35:04;25.20;99.90
48206;DHT22;33995;48.202;16.260;2023-06-26T08:37:38;25.30;99.90
48206;DHT22;33995;48.202;16.260;2023-06-26T08:40:10;25.50;99.90
48206;DHT22;33995;48.202;16.260;2023-06-26T08:42:40;25.50;99.90
48206;DHT22;33995;48.202;16.260;2023-06-26T08:45:08;25.30;99.90
48206;DHT22;33995;48.202;16.260;2023-06-26T08:47:39;25.30;99.90
48206;DHT22;33995;48.202;16.260;2023-06-26T08:50:13;25.50;99.90
48206;DHT22;33995;48.202;16.260;2023-06-26T08:52:48;25.60;99.90
48206;DHT22;33995;48.202;16.260;2023-06-26T08:55:25;25.70;99.90
48206;DHT22;33995;48.202;16.260;2023-06-26T08:57:55;25.80;99.90
48206;DHT22;33995;48.202;16.260;2023-06-26T09:00:24;25.80;99.90
48206;DHT22;33995;48.202;16.260;2023-06-26T09:02:52;25.60;99.90
48206;DHT22;33995;48.202;16.260;2023-06-26T09:05:21;25.50;99.90
48206;DHT22;33995;48.202;16.260;2023-06-26T09:07:52;25.80;99.90
48206;DHT22;33995;48.202;16.260;2023-06-26T09:10:25;25.80;99.90
48206;DHT22;33995;48.202;16.260;2023-06-26T09:12:58;25.80;99.90
48206;DHT22;33995;48.202;16.260;2023-06-26T09:15:26;25.70;99.90
48206;DHT22;33995;48.202;16.260;2023-06-26T09:17:58;25.80;99.90
48206;DHT22;33995;48.202;16.260;2023-06-26T09:20:28;25.90;99.90
48206;DHT22;33995;48.202;16.260;2023-06-26T09:22:59;26.00;99.90
48206;DHT22;33995;48.202;16.260;2023-06-26T09:25:29;26.10;99.90
48206;DHT22;33995;48.202;16.260;2023-06-26T09:28:05;26.20;99.90
48206;DHT22;33995;48.202;16.260;2023-06-26T09:30:33;26.30;99.90
48206;DHT22;33995;48.202;16.260;2023-06-26T09:33:18;26.40;99.90
48206;DHT22;33995;48.202;16.260;2023-06-26T09:35:47;26.40;99.90
48206;DHT22;33995;48.202;16.260;2023-06-26T09:38:16;26.30;99.90
48206;DHT22;33995;48.202;16.260;2023-06-26T09:40:45;26.30;99.90
48206;DHT22;33995;48.202;16.260;2023-06-26T09:43:14;26.30;99.90
48206;DHT22;33995;48.202;16.260;2023-06-26T09:45:41;26.40;99.90
48206;DHT22;33995;48.202;16.260;2023-06-26T09:48:10;26.50;99.90
48206;DHT22;33995;48.202;16.260;2023-06-26T09:50:41;26.60;99.90
48206;DHT22;33995;48.202;16.260;2023-06-26T09:53:35;26.60;99.90
48206;DHT22;33995;48.202;16.260;2023-06-26T09:56:07;26.40;99.90
48206;DHT22;33995;48.202;16.260;2023-06-26T09:58:42;26.60;99.90
48206;DHT22;33995;48.202;16.260;2023-06-26T10:01:17;26.60;99.90
48206;DHT22;33995;48.202;16.260;2023-06-26T10:03:48;26.70;99.90
48206;DHT22;33995;48.202;16.260;2023-06-26T10:06:23;26.70;99.90
48206;DHT22;33995;48.202;16.260;2023-06-26T10:08:51;26.80;99.90
48206;DHT22;33995;48.202;16.260;2023-06-26T10:11:21;26.70;99.90
48206;DHT22;33995;48.202;16.260;2023-06-26T10:13:51;26.70;99.90
48206;DHT22;33995;48.202;16.260;2023-06-26T10:16:44;26.90;99.90
48206;DHT22;33995;48.202;16.260;2023-06-26T10:19:18;26.90;99.90
48206;DHT22;33995;48.202;16.260;2023-06-26T10:21:56;26.90;99.90
48206;DHT22;33995;48.202;16.260;2023-06-26T10:24:28;27.00;99.90
48206;DHT22;33995;48.202;16.260;2023-06-26T10:27:15;27.10;99.90
48206;DHT22;33995;48.202;16.260;2023-06-26T10:29:51;27.10;99.90
48206;DHT22;33995;48.202;16.260;2023-06-26T10:32:25;27.10;99.90
48206;DHT22;33995;48.202;16.260;2023-06-26T10:34:53;27.30;99.90
48206;DHT22;33995;48.202;16.260;2023-06-26T10:37:46;27.30;99.90
48206;DHT22;33995;48.202;16.260;2023-06-26T10:40:27;27.20;99.90
48206;DHT22;33995;48.202;16.260;2023-06-26T10:43:12;27.30;99.90
48206;DHT22;33995;48.202;16.260;2023-06-26T10:45:47;27.50;99.90
48206;DHT22;33995;48.202;16.260;2023-06-26T10:48:29;27.40;99.90
48206;DHT22;33995;48.202;16.260;2023-06-26T10:50:57;27.50;99.90
48206;DHT22;33995;48.202;16.260;2023-06-26T10:53:49;27.50;99.90
48206;DHT22;33995;48.202;16.260;2023-06-26T10:56:20;27.70;99.90
48206;DHT22;33995;48.202;16.260;2023-06-26T10:58:48;27.60;99.90
48206;DHT22;33995;48.202;16.260;2023-06-26T11:04:06;27.60;99.90
48206;DHT22;33995;48.202;16.260;2023-06-26T11:06:35;27.70;99.90
48206;DHT22;33995;48.202;16.260;2023-06-26T11:09:08;27.80;99.90
48206;DHT22;33995;48.202;16.260;2023-06-26T11:14:26;27.70;99.90
48206;DHT22;33995;48.202;16.260;2023-06-26T11:17:01;27.70;99.90
48206;DHT22;33995;48.202;16.260;2023-06-26T11:19:31;27.60;99.90
48206;DHT22;33995;48.202;16.260;2023-06-26T11:22:05;27.70;99.90
48206;DHT22;33995;48.202;16.260;2023-06-26T11:24:36;27.70;99.90
48206;DHT22;33995;48.202;16.260;2023-06-26T11:27:05;27.80;99.90
48206;DHT22;33995;48.202;16.260;2023-06-26T11:29:34;27.80;99.90
48206;DHT22;33995;48.202;16.260;2023-06-26T11:32:04;27.90;99.90
48206;DHT22;33995;48.202;16.260;2023-06-26T11:34:33;27.80;99.90
48206;DHT22;33995;48.202;16.260;2023-06-26T11:37:02;27.90;99.90
48206;DHT22;33995;48.202;16.260;2023-06-26T11:39:32;27.80;99.90
48206;DHT22;33995;48.202;16.260;2023-06-26T11:41:59;27.80;99.90
48206;DHT22;33995;48.202;16.260;2023-06-26T11:44:30;27.90;99.90
48206;DHT22;33995;48.202;16.260;2023-06-26T11:46:57;28.00;99.90
48206;DHT22;33995;48.202;16.260;2023-06-26T11:49:26;27.90;99.90
48206;DHT22;33995;48.202;16.260;2023-06-26T11:51:57;27.90;99.90
48206;DHT22;33995;48.202;16.260;2023-06-26T11:54:31;27.90;99.90
48206;DHT22;33995;48.202;16.260;2023-06-26T11:57:00;27.90;99.90
48206;DHT22;33995;48.202;16.260;2023-06-26T11:59:38;27.70;99.90
48206;DHT22;33995;48.202;16.260;2023-06-26T12:02:13;27.70;99.90
48206;DHT22;33995;48.202;16.260;2023-06-26T12:04:42;27.60;99.90
48206;DHT22;33995;48.202;16.260;2023-06-26T12:07:10;27.80;99.90
48206;DHT22;33995;48.202;16.260;2023-06-26T12:09:44;27.80;99.90
48206;DHT22;33995;48.202;16.260;2023-06-26T12:12:17;27.80;99.90
48206;DHT22;33995;48.202;16.260;2023-06-26T12:14:48;27.80;99.90
48206;DHT22;33995;48.202;16.260;2023-06-26T12:17:15;28.00;99.90
48206;DHT22;33995;48.202;16.260;2023-06-26T12:19:48;28.10;99.90
48206;DHT22;33995;48.202;16.260;2023-06-26T12:22:20;28.20;99.90
48206;DHT22;33995;48.202;16.260;2023-06-26T12:24:47;28.20;99.90
48206;DHT22;33995;48.202;16.260;2023-06-26T12:27:20;28.10;99.90
48206;DHT22;33995;48.202;16.260;2023-06-26T12:29:52;28.10;99.90
48206;DHT22;33995;48.202;16.260;2023-06-26T12:32:24;28.10;99.90
48206;DHT22;33995;48.202;16.260;2023-06-26T12:34:53;28.00;99.90
48206;DHT22;33995;48.202;16.260;2023-06-26T12:37:25;28.10;99.90
48206;DHT22;33995;48.202;16.260;2023-06-26T12:39:54;28.10;99.90
48206;DHT22;33995;48.202;16.260;2023-06-26T12:42:27;28.20;99.90
48206;DHT22;33995;48.202;16.260;2023-06-26T12:44:55;28.30;99.90
48206;DHT22;33995;48.202;16.260;2023-06-26T12:47:27;28.40;99.90
48206;DHT22;33995;48.202;16.260;2023-06-26T12:49:55;28.20;99.90
48206;DHT22;33995;48.202;16.260;2023-06-26T12:52:44;28.20;99.90
48206;DHT22;33995;48.202;16.260;2023-06-26T12:55:13;28.30;99.90
48206;DHT22;33995;48.202;16.260;2023-06-26T12:57:42;28.30;99.90
48206;DHT22;33995;48.202;16.260;2023-06-26T13:00:12;28.30;99.90
48206;DHT22;33995;48.202;16.260;2023-06-26T13:02:41;28.40;99.90
48206;DHT22;33995;48.202;16.260;2023-06-26T13:05:09;28.40;99.90
48206;DHT22;33995;48.202;16.260;2023-06-26T13:07:37;28.40;99.90
48206;DHT22;33995;48.202;16.260;2023-06-26T13:10:07;28.40;99.90
48206;DHT22;33995;48.202;16.260;2023-06-26T13:12:35;28.50;99.90
48206;DHT22;33995;48.202;16.260;2023-06-26T13:15:04;28.50;99.90
48206;DHT22;33995;48.202;16.260;2023-06-26T13:17:32;28.50;99.90
48206;DHT22;33995;48.202;16.260;2023-06-26T13:19:59;28.50;99.90
48206;DHT22;33995;48.202;16.260;2023-06-26T13:22:26;28.40;99.90
48206;DHT22;33995;48.202;16.260;2023-06-26T13:24:53;28.50;99.90
48206;DHT22;33995;48.202;16.260;2023-06-26T13:27:20;28.60;99.90
48206;DHT22;33995;48.202;16.260;2023-06-26T13:29:48;28.60;99.90
48206;DHT22;33995;48.202;16.260;2023-06-26T13:32:16;28.60;99.90
48206;DHT22;33995;48.202;16.260;2023-06-26T13:34:46;28.50;99.90
48206;DHT22;33995;48.202;16.260;2023-06-26T13:37:19;28.40;99.90
48206;DHT22;33995;48.202;16.260;2023-06-26T13:39:47;28.40;99.90
48206;DHT22;33995;48.202;16.260;2023-06-26T13:42:17;28.50;99.90
48206;DHT22;33995;48.202;16.260;2023-06-26T13:44:46;28.70;99.90
48206;DHT22;33995;48.202;16.260;2023-06-26T13:47:27;28.50;99.90
48206;DHT22;33995;48.202;16.260;2023-06-26T13:49:54;28.50;99.90
48206;DHT22;33995;48.202;16.260;2023-06-26T13:52:25;28.50;99.90
48206;DHT22;33995;48.202;16.260;2023-06-26T13:54:52;28.50;99.90
48206;DHT22;33995;48.202;16.260;2023-06-26T13:57:22;28.50;99.90
48206;DHT22;33995;48.202;16.260;2023-06-26T13:59:53;28.60;99.90
48206;DHT22;33995;48.202;16.260;2023-06-26T14:02:21;28.80;99.90
48206;DHT22;33995;48.202;16.260;2023-06-26T14:04:49;28.80;99.90
48206;DHT22;33995;48.202;16.260;2023-06-26T14:07:18;28.50;99.90
48206;DHT22;33995;48.202;16.260;2023-06-26T14:09:45;28.30;99.90
48206;DHT22;33995;48.202;16.260;2023-06-26T14:12:14;28.30;99.90
48206;DHT22;33995;48.202;16.260;2023-06-26T14:14:44;28.10;99.90
48206;DHT22;33995;48.202;16.260;2023-06-26T14:17:14;28.20;99.90
48206;DHT22;33995;48.202;16.260;2023-06-26T14:19:46;28.30;99.90
48206;DHT22;33995;48.202;16.260;2023-06-26T14:22:14;28.60;99.90
48206;DHT22;33995;48.202;16.260;2023-06-26T14:24:42;28.40;99.90
48206;DHT22;33995;48.202;16.260;2023-06-26T14:27:10;28.40;99.90
48206;DHT22;33995;48.202;16.260;2023-06-26T14:29:37;28.40;99.90
48206;DHT22;33995;48.202;16.260;2023-06-26T14:32:06;28.50;99.90
48206;DHT22;33995;48.202;16.260;2023-06-26T14:34:35;28.50;99.90
48206;DHT22;33995;48.202;16.260;2023-06-26T14:37:03;28.40;99.90
48206;DHT22;33995;48.202;16.260;2023-06-26T14:39:33;28.00;99.90
48206;DHT22;33995;48.202;16.260;2023-06-26T14:42:01;28.00;99.90
48206;DHT22;33995;48.202;16.260;2023-06-26T14:44:29;28.30;99.90
48206;DHT22;33995;48.202;16.260;2023-06-26T14:46:57;28.60;99.90
48206;DHT22;33995;48.202;16.260;2023-06-26T14:49:27;28.60;99.90
48206;DHT22;33995;48.202;16.260;2023-06-26T14:51:55;28.70;99.90
48206;DHT22;33995;48.202;16.260;2023-06-26T14:54:22;28.70;99.90
48206;DHT22;33995;48.202;16.260;2023-06-26T14:56:51;28.50;99.90
48206;DHT22;33995;48.202;16.260;2023-06-26T14:59:20;28.50;99.90
48206;DHT22;33995;48.202;16.260;2023-06-26T15:01:47;28.40;99.90
48206;DHT22;33995;48.202;16.260;2023-06-26T15:04:19;28.50;99.90
48206;DHT22;33995;48.202;16.260;2023-06-26T15:06:46;28.60;99.90
48206;DHT22;33995;48.202;16.260;2023-06-26T15:09:14;28.60;99.90
48206;DHT22;33995;48.202;16.260;2023-06-26T15:11:41;28.50;99.90
48206;DHT22;33995;48.202;16.260;2023-06-26T15:14:09;28.50;99.90
48206;DHT22;33995;48.202;16.260;2023-06-26T15:16:38;28.60;99.90
48206;DHT22;33995;48.202;16.260;2023-06-26T15:19:06;28.60;99.90
48206;DHT22;33995;48.202;16.260;2023-06-26T15:21:35;28.50;99.90
48206;DHT22;33995;48.202;16.260;2023-06-26T15:24:03;28.60;99.90
48206;DHT22;33995;48.202;16.260;2023-06-26T15:26:32;28.50;99.90
48206;DHT22;33995;48.202;16.260;2023-06-26T15:28:59;28.60;99.90
48206;DHT22;33995;48.202;16.260;2023-06-26T15:31:29;28.50;99.90
48206;DHT22;33995;48.202;16.260;2023-06-26T15:33:57;28.50;99.90
48206;DHT22;33995;48.202;16.260;2023-06-26T15:36:25;28.50;99.90
48206;DHT22;33995;48.202;16.260;2023-06-26T15:38:53;28.50;99.90
48206;DHT22;33995;48.202;16.260;2023-06-26T15:41:25;28.60;99.90
48206;DHT22;33995;48.202;16.260;2023-06-26T15:43:56;28.60;99.90